createdAt,value
2024-03-05T00:00:56.791Z,42.87
2024-03-05T00:05:59.795Z,40.77
2024-03-05T00:11:05.305Z,44.23
2024-03-05T00:16:09.111Z,43.17
2024-03-05T00:21:11.992Z,40.93
2024-03-05T00:26:19.471Z,44.40
2024-03-05T00:31:22.633Z,43.10
2024-03-05T00:36:26.352Z,44.73
2024-03-05T00:41:30.651Z,44.10
2024-03-05T00:46:34.295Z,42.30
2024-03-05T00:51:37.194Z,42.77
2024-03-05T00:56:41.659Z,40.10
2024-03-05T01:01:44.691Z,40.87
2024-03-05T01:06:47.670Z,41.70
2024-03-05T01:11:52.130Z,45.40
2024-03-05T01:16:55.145Z,43.90
2024-03-05T01:21:59.427Z,41.73
2024-03-05T01:27:06.628Z,43.57
2024-03-05T01:32:10.666Z,40.30
2024-03-05T01:37:13.668Z,39.40
2024-03-05T01:42:18.154Z,41.67
2024-03-05T01:47:21.886Z,38.13
2024-03-05T01:52:25.422Z,37.67
2024-03-05T01:57:29.993Z,36.03
2024-03-05T02:02:33.057Z,40.80
2024-03-05T02:07:36.637Z,39.50
2024-03-05T02:12:42.056Z,39.93
2024-03-05T02:17:45.083Z,38.97
2024-03-05T02:22:49.412Z,39.60
2024-03-05T02:27:52.511Z,37.70
2024-03-05T02:32:55.598Z,37.03
2024-03-05T02:37:59.953Z,37.53
2024-03-05T02:43:02.907Z,36.57
2024-03-05T02:48:07.417Z,35.10
2024-03-05T02:53:12.004Z,33.50
2024-03-05T02:58:15.229Z,35.40
2024-03-05T03:03:18.184Z,36.17
2024-03-05T03:08:22.750Z,33.80
2024-03-05T03:13:25.673Z,35.03
2024-03-05T03:18:28.607Z,32.20
2024-03-05T03:23:33.012Z,34.50
2024-03-05T03:28:35.924Z,35.10
2024-03-05T03:33:40.305Z,32.13
2024-03-05T03:38:45.055Z,33.40
2024-03-05T03:43:48.385Z,32.53
2024-03-05T03:48:52.003Z,33.40
2024-03-05T03:53:56.309Z,33.63
2024-03-05T03:58:59.208Z,33.40
2024-03-05T04:04:03.410Z,30.90
2024-03-05T04:09:09.447Z,32.17
2024-03-05T04:14:12.619Z,32.67
2024-03-05T04:19:15.562Z,30.37
2024-03-05T04:24:21.595Z,32.90
2024-03-05T04:29:31.231Z,31.87
2024-03-05T04:34:36.528Z,31.90
2024-03-05T04:39:43.968Z,31.73
2024-03-05T04:44:47.733Z,30.83
2024-03-05T04:49:50.698Z,33.47
2024-03-05T04:54:55.374Z,30.10
2024-03-05T04:59:59.196Z,30.20
2024-03-05T05:05:04.227Z,30.23
2024-03-05T05:10:10.534Z,31.53
2024-03-05T05:15:14.003Z,28.93
2024-03-05T05:20:19.435Z,28.87
2024-03-05T05:25:24.937Z,32.10
2024-03-05T05:30:27.913Z,31.37
2024-03-05T05:35:30.839Z,31.40
2024-03-05T05:40:35.179Z,29.70
2024-03-05T05:45:38.906Z,31.87
2024-03-05T05:50:43.477Z,29.67
2024-03-05T05:55:47.939Z,28.57
2024-03-05T06:00:51.856Z,28.97
2024-03-05T06:05:54.809Z,29.80
2024-03-05T06:10:59.275Z,27.03
2024-03-05T06:16:02.297Z,29.00
2024-03-05T06:21:06.581Z,28.83
2024-03-05T06:26:11.165Z,29.07
2024-03-05T06:31:14.052Z,27.40
2024-03-05T06:36:17.001Z,28.57
2024-03-05T06:41:21.322Z,27.67
2024-03-05T06:46:30.685Z,30.07
2024-03-05T06:51:42.883Z,28.63
2024-03-05T06:56:47.223Z,29.07
2024-03-05T07:01:50.206Z,28.93
2024-03-05T07:06:56.025Z,28.60
2024-03-05T07:12:00.792Z,26.67
2024-03-05T07:17:03.842Z,28.33
2024-03-05T07:22:08.202Z,26.90
2024-03-05T07:27:13.183Z,28.17
2024-03-05T07:32:16.952Z,27.30
2024-03-05T07:37:20.124Z,28.60
2024-03-05T07:42:24.378Z,25.30
2024-03-05T07:47:27.292Z,26.50
2024-03-05T07:52:30.261Z,25.47
2024-03-05T07:57:35.793Z,27.27
2024-03-05T08:02:39.749Z,24.50
2024-03-05T08:07:42.681Z,24.00
2024-03-05T08:12:48.450Z,25.33
2024-03-05T08:17:51.557Z,25.57
2024-03-05T08:22:55.238Z,24.70
2024-03-05T08:28:00.243Z,24.00
2024-03-05T08:33:04.754Z,22.63
2024-03-05T08:38:10.383Z,24.50
2024-03-05T08:43:15.427Z,23.20
2024-03-05T08:48:18.867Z,24.77
2024-03-05T08:53:21.880Z,21.43
2024-03-05T08:58:26.200Z,24.77
2024-03-05T09:03:29.111Z,23.40
2024-03-05T09:08:32.180Z,22.97
2024-03-05T09:13:36.496Z,24.07
2024-03-05T09:18:39.418Z,22.43
2024-03-05T09:23:42.325Z,21.47
2024-03-05T09:28:46.688Z,24.37
2024-03-05T09:33:49.610Z,23.60
2024-03-05T09:38:52.523Z,24.80
2024-03-05T09:43:58.136Z,25.40
2024-03-05T09:49:10.902Z,23.27
2024-03-05T09:54:17.969Z,22.20
2024-03-05T09:59:22.494Z,24.90
2024-03-05T10:04:27.945Z,23.30
2024-03-05T10:09:31.580Z,22.17
2024-03-05T10:14:35.951Z,22.80
2024-03-05T10:19:44.594Z,22.60
2024-03-05T10:24:49.345Z,23.70
2024-03-05T10:29:53.772Z,23.20
2024-03-05T10:34:57.376Z,22.30
2024-03-05T10:40:00.398Z,21.67
2024-03-05T10:45:05.027Z,22.53
2024-03-05T10:50:13.648Z,25.50
2024-03-05T10:55:22.498Z,23.30
2024-03-05T11:00:27.634Z,23.20
2024-03-05T11:05:32.829Z,25.10
2024-03-05T11:10:36.610Z,24.13
2024-03-05T11:15:41.254Z,23.43
2024-03-05T11:20:44.358Z,23.07
2024-03-05T11:25:48.654Z,22.93
2024-03-05T11:31:10.616Z,21.80
2024-03-05T11:36:23.150Z,22.53
2024-03-05T11:41:26.326Z,22.53
2024-03-05T11:46:54.470Z,22.67
2024-03-05T11:52:00.528Z,23.13
2024-03-05T11:57:05.259Z,23.90
2024-03-05T12:02:12.717Z,23.83
2024-03-05T12:07:15.796Z,22.00
2024-03-05T12:12:22.826Z,20.93
2024-03-05T12:17:27.494Z,23.27
2024-03-05T12:22:30.602Z,20.93
2024-03-05T12:27:35.456Z,20.40
2024-03-05T12:32:43.527Z,20.67
2024-03-05T12:37:48.616Z,20.70
2024-03-05T12:42:53.692Z,21.80
2024-03-05T12:48:00.686Z,21.37
2024-03-05T12:53:07.179Z,22.53
2024-03-05T12:58:12.490Z,21.83
2024-03-05T13:03:17.780Z,21.40
2024-03-05T13:08:20.848Z,21.10
2024-03-05T13:13:23.822Z,20.23
2024-03-05T13:18:28.093Z,19.63
2024-03-05T13:23:31.005Z,19.30
2024-03-05T13:28:33.953Z,19.80
2024-03-05T13:33:38.223Z,20.90
2024-03-05T13:38:41.210Z,18.67
2024-03-05T13:43:44.138Z,19.27
2024-03-05T13:48:48.467Z,19.03
2024-03-05T13:53:51.740Z,24.10
2024-03-05T13:58:54.766Z,22.20
2024-03-05T14:03:59.649Z,22.10
2024-03-05T14:09:02.584Z,21.60
2024-03-05T14:14:06.004Z,20.53
2024-03-05T14:19:10.373Z,19.50
2024-03-05T14:24:14.173Z,20.37
2024-03-05T14:29:17.187Z,19.50
2024-03-05T14:34:22.550Z,21.73
2024-03-05T14:39:25.501Z,21.30
2024-03-05T14:44:28.382Z,20.67
2024-03-05T14:49:32.787Z,21.17
2024-03-05T14:54:35.785Z,23.00
2024-03-05T14:59:38.697Z,20.13
2024-03-05T15:04:43.423Z,21.13
2024-03-05T15:09:46.561Z,22.57
2024-03-05T15:14:50.170Z,21.43
2024-03-05T15:19:54.524Z,20.63
2024-03-05T15:24:57.624Z,24.90
2024-03-05T15:30:00.554Z,24.00
2024-03-05T15:35:05.704Z,23.07
2024-03-05T15:40:16.401Z,23.67
2024-03-05T15:45:20.394Z,22.40
2024-03-05T15:50:26.565Z,22.73
2024-03-05T15:55:30.427Z,22.70
2024-03-05T16:00:37.262Z,23.43
2024-03-05T16:05:52.459Z,26.40
2024-03-05T16:11:03.681Z,27.70
2024-03-05T16:16:08.704Z,24.90
2024-03-05T16:21:14.130Z,26.23
2024-03-05T16:26:17.177Z,26.30
2024-03-05T16:31:22.973Z,34.73
2024-03-05T16:36:27.412Z,35.53
2024-03-05T16:41:30.307Z,31.90
2024-03-05T16:46:34.952Z,27.50
2024-03-05T16:51:41.122Z,25.33
2024-03-05T16:56:45.115Z,27.80
2024-03-05T17:01:48.096Z,27.67
2024-03-05T17:06:52.421Z,26.87
2024-03-05T17:11:55.301Z,27.40
2024-03-05T17:16:58.598Z,26.10
2024-03-05T17:22:04.641Z,26.63
2024-03-05T17:27:07.815Z,26.60
2024-03-05T17:32:10.960Z,28.53
2024-03-05T17:37:15.671Z,27.20
2024-03-05T17:42:18.642Z,26.93
2024-03-05T17:47:21.624Z,27.80
2024-03-05T17:52:28.247Z,26.63
2024-03-05T17:57:32.976Z,29.00
2024-03-05T18:02:36.535Z,28.53
2024-03-05T18:07:41.522Z,30.10
2024-03-05T18:12:44.993Z,29.30
2024-03-05T18:17:49.838Z,30.93
2024-03-05T18:22:54.386Z,32.50
2024-03-05T18:27:57.296Z,31.47
2024-03-05T18:33:01.326Z,29.97
2024-03-05T18:43:12.596Z,29.37
2024-03-05T18:48:16.406Z,32.07
2024-03-05T18:53:26.031Z,26.20
2024-03-05T18:58:34.849Z,29.90
2024-03-05T19:03:37.756Z,28.20
2024-03-05T19:08:42.029Z,28.20
2024-03-05T19:13:45.802Z,37.70
2024-03-05T19:18:48.755Z,32.70
2024-03-05T19:23:52.993Z,29.23
2024-03-05T19:28:55.883Z,30.30
2024-03-05T19:33:59.497Z,29.73
2024-03-05T19:39:05.219Z,29.80
2024-03-05T19:44:08.978Z,26.50
2024-03-05T19:49:11.926Z,27.40
2024-03-05T19:54:16.534Z,29.67
2024-03-05T19:59:19.465Z,30.37
2024-03-05T20:04:22.358Z,29.07
2024-03-05T20:09:26.615Z,27.10
2024-03-05T20:14:29.721Z,26.90
2024-03-05T20:19:35.432Z,26.67
2024-03-05T20:24:39.791Z,26.53
2024-03-05T20:29:42.689Z,24.70
2024-03-05T20:34:49.442Z,25.13
2024-03-05T20:39:57.249Z,26.27
2024-03-05T20:45:00.238Z,27.63
2024-03-05T20:50:03.323Z,28.20
2024-03-05T20:55:09.859Z,26.40
2024-03-05T21:00:16.385Z,25.60
2024-03-05T21:05:20.227Z,26.97
2024-03-05T21:10:24.878Z,27.07
2024-03-05T21:15:27.899Z,28.30
2024-03-05T21:20:31.330Z,30.97
2024-03-05T21:25:44.618Z,27.80
2024-03-05T21:31:00.786Z,29.73
2024-03-05T21:36:03.838Z,29.63
2024-03-05T21:41:10.091Z,27.77
2024-03-05T21:46:13.980Z,27.43
2024-03-05T21:51:17.032Z,27.47
2024-03-05T21:56:21.956Z,24.60
2024-03-05T22:01:25.100Z,22.83
2024-03-05T22:06:28.008Z,22.90
2024-03-05T22:11:32.299Z,21.80
2024-03-05T22:16:35.212Z,22.53
2024-03-05T22:21:39.064Z,21.60
2024-03-05T22:26:43.422Z,21.43
2024-03-05T22:31:46.383Z,20.83
2024-03-05T22:36:49.323Z,20.87
2024-03-05T22:41:53.935Z,20.20
2024-03-05T22:46:56.917Z,19.90
2024-03-05T22:51:59.825Z,20.27
2024-03-05T22:57:05.581Z,21.10
2024-03-05T23:02:08.543Z,21.07
2024-03-05T23:07:11.521Z,18.80
2024-03-05T23:12:16.509Z,19.13
2024-03-05T23:17:19.570Z,19.70
2024-03-05T23:22:23.244Z,20.23
2024-03-05T23:27:27.605Z,19.77
2024-03-05T23:32:31.286Z,18.27
2024-03-05T23:37:35.201Z,18.20
2024-03-05T23:42:40.096Z,18.40
2024-03-05T23:47:43.110Z,17.37
2024-03-05T23:52:46.116Z,18.50
2024-03-05T23:57:50.465Z,18.97
